Time;durP1;ratioP1;P1;durP2;ratioP2;P2;SDS_P1;SDS_P2;PMS_P1;PMS_P2;Temp;Humidity;BMP_temperature;BMP_pressure;BME280_temperature;BME280_humidity;BME280_pressure;Samples;Min_cycle;Max_cycle;Signal;HPM_P1;HPM_P2
2022/06/03 00:01:03;;;;;;;15.05;11.13;;;;;;;11.54;91.47;96223.06;2071844;28;20476;-62
2022/06/03 00:02:24;;;;;;;12.40;11.00;;;;;;;11.52;91.77;96224.94;2075935;28;20046;-63
2022/06/03 00:03:52;;;;;;;10.90;9.80;;;;;;;11.52;91.34;96222.34;2055348;28;20489;-62
2022/06/03 00:04:59;;;;;;;13.38;10.75;;;;;;;11.51;91.65;96218.03;2067824;28;20041;-62
2022/06/03 00:06:24;;;;;;;14.85;11.88;;;;;;;11.50;91.65;96215.50;2064024;28;20042;-62
2022/06/03 00:07:58;;;;;;;12.38;11.07;;;;;;;11.47;91.49;96222.53;2062865;28;20041;-63
2022/06/03 00:09:12;;;;;;;13.00;10.25;;;;;;;11.45;91.58;96213.97;2062558;28;20042;-62
2022/06/03 00:10:44;;;;;;;15.18;10.77;;;;;;;11.42;92.10;96219.31;2057948;28;20039;-63
2022/06/03 00:12:23;;;;;;;13.60;11.13;;;;;;;11.42;91.67;96215.88;2064009;28;20050;-63
2022/06/03 00:14:03;;;;;;;12.52;9.70;;;;;;;11.42;92.00;96216.72;2060696;28;20050;-61
2022/06/03 00:15:24;;;;;;;12.15;10.18;;;;;;;11.42;91.62;96211.50;2066346;28;20550;-65
2022/06/03 00:16:47;;;;;;;13.57;9.82;;;;;;;11.41;91.46;96207.25;2066561;28;20053;-64
2022/06/03 00:18:27;;;;;;;12.10;9.75;;;;;;;11.40;92.26;96205.53;2058140;28;20046;-65
2022/06/03 00:19:45;;;;;;;12.80;10.52;;;;;;;11.38;91.37;96206.50;2068307;28;20041;-65
2022/06/03 00:21:04;;;;;;;11.80;10.40;;;;;;;11.34;91.85;96205.81;2050158;28;20051;-65
2022/06/03 00:22:20;;;;;;;11.85;9.45;;;;;;;11.33;91.92;96204.13;2050634;28;20418;-62
2022/06/03 00:23:29;;;;;;;14.15;10.20;;;;;;;11.31;91.11;96194.75;2045446;28;20051;-63
2022/06/03 00:24:30;;;;;;;;;;;;;;;11.26;91.70;96200.97;2051476;28;20047;-60
2022/06/03 00:26:11;;;;;;;11.68;9.93;;;;;;;11.21;91.79;96200.34;2056211;28;19921;-61
2022/06/03 00:27:39;;;;;;;12.50;10.57;;;;;;;11.20;91.15;96203.88;2061206;28;20038;-62
2022/06/03 00:29:05;;;;;;;12.05;10.20;;;;;;;11.18;91.51;96200.50;2059521;28;20058;-61
2022/06/03 00:30:32;;;;;;;13.63;11.57;;;;;;;11.21;91.71;96200.34;2051096;28;20046;-62
2022/06/03 00:31:58;;;;;;;13.02;11.63;;;;;;;11.19;91.32;96201.34;2053685;28;20077;-62
2022/06/03 00:33:22;;;;;;;14.63;12.13;;;;;;;11.19;92.10;96196.97;2060866;28;20431;-62
2022/06/03 00:34:36;;;;;;;12.75;10.60;;;;;;;11.18;91.91;96203.09;2063581;28;20137;-61
2022/06/03 00:35:59;;;;;;;12.40;10.88;;;;;;;11.16;91.44;96204.09;2065857;28;20054;-61
2022/06/03 00:37:28;;;;;;;15.73;12.45;;;;;;;11.12;91.91;96194.72;2052840;28;20051;-62
2022/06/03 00:38:52;;;;;;;14.82;11.32;;;;;;;11.12;91.60;96200.78;2048891;28;20065;-62
2022/06/03 00:40:02;;;;;;;16.42;12.60;;;;;;;11.14;92.08;96193.75;2073928;28;20057;-62
2022/06/03 00:41:08;;;;;;;17.05;12.93;;;;;;;11.12;92.02;96202.53;2065330;28;20054;-62
2022/06/03 00:42:45;;;;;;;15.43;12.70;;;;;;;11.11;92.25;96195.66;2058145;28;20047;-64
2022/06/03 00:43:58;;;;;;;20.48;13.15;;;;;;;11.10;92.20;96205.22;2063266;28;20053;-64
2022/06/03 00:45:08;;;;;;;15.95;13.05;;;;;;;11.08;92.74;96204.44;2071295;28;20046;-62
2022/06/03 00:46:20;;;;;;;15.85;12.77;;;;;;;11.07;92.51;96201.91;2066109;28;20038;-62
2022/06/03 00:47:31;;;;;;;14.70;11.43;;;;;;;11.07;92.42;96207.13;2053718;28;20047;-58
2022/06/03 00:48:51;;;;;;;15.18;12.63;;;;;;;11.04;92.06;96203.75;2065343;28;20432;-62
2022/06/03 00:50:20;;;;;;;15.70;12.52;;;;;;;11.04;92.49;96208.09;2073305;28;20045;-64
2022/06/03 00:51:24;;;;;;;14.30;12.77;;;;;;;11.00;92.01;96196.97;2056787;28;20049;-62
2022/06/03 00:52:51;;;;;;;18.15;14.30;;;;;;;11.01;92.72;96203.88;2058275;28;20038;-62
2022/06/03 00:54:32;;;;;;;16.63;13.25;;;;;;;10.98;91.91;96201.41;2052061;28;20047;-63
2022/06/03 00:55:42;;;;;;;15.20;13.02;;;;;;;10.98;92.07;96197.97;2054386;28;20046;-63
2022/06/03 00:57:22;;;;;;;17.35;13.80;;;;;;;10.94;92.35;96196.44;2050440;28;20051;-63
2022/06/03 00:58:38;;;;;;;13.40;11.43;;;;;;;10.93;92.75;96200.78;2063099;28;20517;-62
2022/06/03 01:00:03;;;;;;;18.27;13.68;;;;;;;10.90;92.55;96193.09;2061032;28;20042;-64
2022/06/03 01:01:09;;;;;;;14.90;12.68;;;;;;;10.89;92.56;96195.78;2068686;28;20060;-62
2022/06/03 01:02:21;;;;;;;15.95;13.95;;;;;;;10.89;92.29;96198.41;2072342;28;20038;-63
2022/06/03 01:04:02;;;;;;;16.52;14.10;;;;;;;10.87;92.38;96195.84;2066362;28;20504;-62
2022/06/03 01:05:15;;;;;;;15.10;13.18;;;;;;;10.87;92.59;96195.00;2055154;28;20464;-63
2022/06/03 01:06:46;;;;;;;15.70;12.32;;;;;;;10.85;92.56;96207.22;2063322;28;20042;-62
2022/06/03 01:08:27;;;;;;;14.32;11.95;;;;;;;10.82;91.98;96201.28;2065219;28;20504;-63
2022/06/03 01:09:41;;;;;;;13.88;11.60;;;;;;;10.81;92.24;96201.34;2062183;28;20050;-60
2022/06/03 01:10:52;;;;;;;16.33;13.10;;;;;;;10.82;92.07;96197.81;2061755;28;20053;-62
2022/06/03 01:11:57;;;;;;;15.48;13.02;;;;;;;10.80;92.09;96194.47;2058356;28;20262;-62
2022/06/03 01:13:20;;;;;;;15.95;12.90;;;;;;;10.81;92.64;96196.97;2065986;28;20050;-65
2022/06/03 01:14:41;;;;;;;15.00;13.00;;;;;;;10.77;92.68;96194.56;2064976;28;20057;-62
2022/06/03 01:16:00;;;;;;;17.77;13.43;;;;;;;10.75;92.47;96192.06;2052212;28;20561;-62
2022/06/03 01:17:09;;;;;;;16.92;13.20;;;;;;;10.77;92.07;96199.78;2051513;28;20464;-62
2022/06/03 01:18:20;;;;;;;14.25;12.43;;;;;;;10.64;92.30;96178.72;2060760;28;20042;-63
2022/06/03 01:19:30;;;;;;;17.48;13.45;;;;;;;10.74;92.03;96195.56;2072512;28;20037;-62
2022/06/03 01:20:43;;;;;;;13.85;11.90;;;;;;;10.72;92.48;96192.19;2061642;28;20065;-59
2022/06/03 01:21:48;;;;;;;14.35;12.38;;;;;;;10.71;92.04;96195.69;2075254;28;20046;-61
2022/06/03 01:23:29;;;;;;;15.75;12.85;;;;;;;10.71;92.71;96197.44;2064863;28;20077;-60
2022/06/03 01:24:55;;;;;;;16.98;13.02;;;;;;;10.70;92.71;96198.38;2062077;28;20053;-61
2022/06/03 01:26:09;;;;;;;14.35;12.65;;;;;;;10.69;91.98;96186.28;2052590;28;20046;-61
2022/06/03 01:27:12;;;;;;;15.48;12.13;;;;;;;10.67;92.13;96190.72;2063304;28;20049;-62
2022/06/03 01:28:16;;;;;;;13.88;12.35;;;;;;;10.67;91.96;96190.72;2065350;28;20038;-61
2022/06/03 01:29:34;;;;;;;15.43;13.23;;;;;;;10.66;92.01;96187.25;2073405;28;20451;-62
2022/06/03 01:31:01;;;;;;;14.90;11.68;;;;;;;10.64;92.74;96185.63;2056883;28;20054;-61
2022/06/03 01:32:19;;;;;;;18.08;14.25;;;;;;;10.60;92.74;96185.78;2053372;28;20531;-62
2022/06/03 01:33:36;;;;;;;14.30;12.05;;;;;;;10.60;92.50;96180.59;2059031;28;20039;-61
2022/06/03 01:35:05;;;;;;;17.25;13.18;;;;;;;10.59;92.04;96183.28;2060799;28;20051;-61
2022/06/03 01:36:08;;;;;;;15.27;12.05;;;;;;;10.57;92.39;96183.31;2060647;28;20050;-62
2022/06/03 01:37:47;;;;;;;13.77;11.68;;;;;;;10.58;92.90;96189.34;2057851;28;20043;-60
2022/06/03 01:39:02;;;;;;;13.60;11.68;;;;;;;10.56;92.08;96186.84;2062240;28;20051;-62
2022/06/03 01:40:19;;;;;;;13.98;12.18;;;;;;;10.55;92.60;96179.09;2068928;28;20061;-61
2022/06/03 01:41:46;;;;;;;15.30;13.27;;;;;;;10.55;92.16;96179.94;2061774;28;20046;-62
2022/06/03 01:42:50;;;;;;;14.73;12.10;;;;;;;10.55;92.08;96184.31;2060375;28;20034;-61
2022/06/03 01:44:10;;;;;;;13.88;12.02;;;;;;;10.56;92.68;96184.25;2068480;28;20054;-63
2022/06/03 01:45:36;;;;;;;14.73;11.90;;;;;;;10.54;92.55;96185.22;2067354;28;20057;-62
2022/06/03 01:46:44;;;;;;;15.90;13.18;;;;;;;10.51;93.07;96181.00;2060443;28;20038;-62
2022/06/03 01:48:08;;;;;;;15.00;11.80;;;;;;;10.51;93.01;96191.41;2048541;29;20528;-59
2022/06/03 01:49:24;;;;;;;14.77;13.00;;;;;;;10.49;93.14;96187.19;2060488;28;20040;-62
2022/06/03 01:50:44;;;;;;;17.17;13.90;;;;;;;10.48;92.93;96188.94;2065116;28;20114;-62
2022/06/03 01:52:08;;;;;;;15.57;13.00;;;;;;;10.47;93.16;96189.00;2066964;28;20053;-62
2022/06/03 01:53:49;;;;;;;16.40;13.68;;;;;;;10.48;93.05;96193.28;2068071;28;20053;-62
2022/06/03 01:55:10;;;;;;;20.23;15.07;;;;;;;10.48;92.97;96199.31;2070380;28;20054;-62
2022/06/03 01:56:49;;;;;;;17.02;12.43;;;;;;;10.48;93.34;96199.31;2075621;28;20057;-62
2022/06/03 01:58:11;;;;;;;18.35;15.13;;;;;;;10.48;92.52;96199.31;2064556;28;20073;-61
2022/06/03 01:59:40;;;;;;;18.48;15.00;;;;;;;10.50;92.62;96196.63;2067435;28;20038;-63
2022/06/03 02:00:47;;;;;;;17.88;14.93;;;;;;;10.51;93.15;96188.78;2052684;28;20046;-59
2022/06/03 02:02:26;;;;;;;19.23;15.13;;;;;;;10.52;93.85;96190.47;2057375;28;20062;-62
2022/06/03 02:03:34;;;;;;;18.95;14.48;;;;;;;10.52;93.77;96190.47;2068608;28;20053;-62
2022/06/03 02:04:58;;;;;;;16.10;14.05;;;;;;;10.52;92.89;96193.06;2064606;28;20054;-63
2022/06/03 02:05:59;;;;;;;19.45;15.38;;;;;;;10.49;93.63;96189.78;2064714;28;20057;-62
2022/06/03 02:07:33;;;;;;;17.80;15.80;;;;;;;10.48;93.11;96183.75;2062876;28;20057;-63
2022/06/03 02:08:53;;;;;;;18.60;15.05;;;;;;;10.50;93.95;96183.66;2068150;28;20054;-62
2022/06/03 02:10:26;;;;;;;20.35;14.88;;;;;;;10.47;93.06;96182.03;2064382;28;20046;-59
2022/06/03 02:11:36;;;;;;;16.70;14.20;;;;;;;10.47;93.91;96173.41;2056960;28;20058;-61
2022/06/03 02:13:16;;;;;;;14.95;13.40;;;;;;;10.45;93.36;96183.00;2058917;28;20593;-61
2022/06/03 02:14:46;;;;;;;19.60;15.73;;;;;;;10.42;93.74;96172.75;2070108;28;20049;-61
2022/06/03 02:16:16;;;;;;;15.40;13.80;;;;;;;10.40;93.91;96171.97;2053318;28;20039;-61
2022/06/03 02:17:31;;;;;;;17.88;14.40;;;;;;;10.38;93.44;96175.50;2060382;28;20093;-62
2022/06/03 02:18:55;;;;;;;17.00;13.32;;;;;;;10.38;93.17;96177.25;2056043;28;20061;-61
2022/06/03 02:20:36;;;;;;;16.00;13.85;;;;;;;10.38;93.62;96175.50;2062307;28;20061;-62
2022/06/03 02:21:48;;;;;;;17.25;14.18;;;;;;;10.34;93.94;96171.38;2054453;28;20051;-61
2022/06/03 02:23:28;;;;;;;17.08;13.75;;;;;;;10.32;93.80;96168.00;2048288;28;20047;-61
2022/06/03 02:24:37;;;;;;;16.90;13.68;;;;;;;10.34;93.24;96173.09;2062189;28;20050;-63
2022/06/03 02:25:44;;;;;;;13.52;12.10;;;;;;;10.33;93.09;96166.22;2057474;28;20528;-61
2022/06/03 02:26:57;;;;;;;19.65;13.98;;;;;;;10.30;93.78;96166.38;2065112;28;20046;-62
2022/06/03 02:28:27;;;;;;;16.23;13.05;;;;;;;10.34;93.19;96167.91;2074800;28;20049;-59
2022/06/03 02:31:14;;;;;;;17.73;13.70;;;;;;;10.36;93.12;96173.88;2064800;28;20062;-62
2022/06/03 02:32:23;;;;;;;16.58;14.13;;;;;;;10.40;93.60;96165.06;2047510;28;20047;-60
2022/06/03 02:33:36;;;;;;;19.83;14.30;;;;;;;10.40;93.65;96169.38;2052740;28;20039;-60
2022/06/03 02:34:59;;;;;;;17.08;14.50;;;;;;;10.40;93.97;96165.06;2074564;28;20053;-62
2022/06/03 02:36:32;;;;;;;18.42;14.90;;;;;;;10.42;93.23;96168.41;2064697;28;20125;-61
2022/06/03 02:37:54;;;;;;;17.20;15.05;;;;;;;10.42;93.49;96168.41;2060273;28;20101;-61
2022/06/03 02:39:14;;;;;;;15.02;13.02;;;;;;;10.46;93.90;96171.72;2063371;28;20050;-62
2022/06/03 02:40:39;;;;;;;17.02;13.48;;;;;;;10.46;93.46;96166.53;2059029;28;20053;-59
2022/06/03 02:41:58;;;;;;;14.93;13.38;;;;;;;10.44;93.80;96166.59;2055100;28;20417;-62
2022/06/03 02:43:23;;;;;;;18.40;13.75;;;;;;;10.44;93.91;96170.94;2064266;28;20046;-62
2022/06/03 02:44:55;;;;;;;16.08;13.48;;;;;;;10.44;93.96;96176.97;2059939;28;20034;-61
2022/06/03 02:46:15;;;;;;;17.85;14.07;;;;;;;10.43;93.67;96169.28;2068486;28;20042;-63
2022/06/03 02:47:36;;;;;;;14.57;13.05;;;;;;;10.42;93.64;96178.78;2066951;28;20042;-62
2022/06/03 02:49:02;;;;;;;15.50;12.70;;;;;;;10.43;94.12;96174.47;2069507;28;20121;-61
2022/06/03 02:50:26;;;;;;;14.45;11.98;;;;;;;10.42;93.37;96176.19;2071733;28;20052;-61
2022/06/03 02:51:53;;;;;;;16.33;13.60;;;;;;;10.41;93.78;96182.31;2075787;28;20060;-60
2022/06/03 02:53:22;;;;;;;16.65;14.00;;;;;;;10.42;94.11;96177.97;2072475;28;20050;-61
2022/06/03 02:54:49;;;;;;;17.77;13.68;;;;;;;10.41;93.68;96173.69;2064004;28;20539;-61
2022/06/03 02:56:22;;;;;;;19.35;14.40;;;;;;;10.38;93.90;96175.50;2063432;28;20586;-62
2022/06/03 02:57:38;;;;;;;18.23;14.75;;;;;;;10.37;93.61;96180.75;2060585;28;20038;-62
2022/06/03 02:59:16;;;;;;;17.38;14.02;;;;;;;10.32;93.55;96180.97;2062399;28;20047;-62
2022/06/03 03:00:38;;;;;;;18.92;14.15;;;;;;;10.31;93.55;96186.22;2068539;28;20114;-62
2022/06/03 03:02:07;;;;;;;17.80;13.02;;;;;;;10.32;93.67;96180.13;2058806;28;20065;-61
2022/06/03 03:03:48;;;;;;;17.83;14.27;;;;;;;10.33;93.75;96189.59;2059886;28;20515;-63
2022/06/03 03:04:55;;;;;;;17.80;13.80;;;;;;;10.34;93.54;96186.06;2061512;28;20563;-61
2022/06/03 03:06:08;;;;;;;17.73;14.90;;;;;;;10.32;94.11;96180.97;2049518;28;20446;-63
2022/06/03 03:07:24;;;;;;;16.33;13.75;;;;;;;10.34;94.17;96186.06;2053474;28;20046;-61
2022/06/03 03:08:34;;;;;;;14.27;12.15;;;;;;;10.35;93.57;96182.59;2071270;28;20117;-61
2022/06/03 03:09:59;;;;;;;16.02;13.27;;;;;;;10.35;93.48;96180.84;2065064;28;20592;-59
2022/06/03 03:11:20;;;;;;;15.70;13.32;;;;;;;10.40;93.46;96174.56;2072683;28;20049;-62
2022/06/03 03:12:52;;;;;;;16.23;12.93;;;;;;;10.43;93.72;96169.28;2069775;28;20050;-61
2022/06/03 03:14:27;;;;;;;14.32;12.27;;;;;;;10.45;93.48;96172.63;2059821;28;20049;-60
2022/06/03 03:15:53;;;;;;;14.90;11.95;;;;;;;10.45;93.54;96177.81;2063623;28;20057;-59
2022/06/03 03:16:55;;;;;;;15.38;13.25;;;;;;;10.45;93.96;96183.00;2064059;28;20034;-61
2022/06/03 03:18:18;;;;;;;14.90;11.82;;;;;;;10.46;93.84;96182.13;2059128;28;20053;-62
2022/06/03 03:19:46;;;;;;;15.38;12.23;;;;;;;10.49;93.84;96188.00;2066864;28;20057;-61
2022/06/03 03:21:00;;;;;;;14.68;11.32;;;;;;;10.54;93.64;96182.63;2067759;28;20053;-61
2022/06/03 03:22:11;;;;;;;12.73;11.32;;;;;;;10.54;93.39;96178.28;2071123;28;20053;-63
2022/06/03 03:23:34;;;;;;;14.38;11.80;;;;;;;10.60;93.09;96187.53;2063760;28;20069;-62
2022/06/03 03:25:02;;;;;;;12.88;10.85;;;;;;;10.65;93.64;96184.75;2058860;28;20050;-61
2022/06/03 03:26:24;;;;;;;14.43;10.65;;;;;;;10.68;93.82;96184.59;2063390;28;20049;-62
2022/06/03 03:27:28;;;;;;;13.85;10.82;;;;;;;10.73;93.25;96187.84;2068196;28;20045;-62
2022/06/03 03:29:06;;;;;;;13.80;10.88;;;;;;;10.77;93.66;96187.66;2056177;28;20047;-61
2022/06/03 03:30:45;;;;;;;11.35;8.85;;;;;;;10.85;93.83;96179.47;2057709;28;20039;-62
2022/06/03 03:32:11;;;;;;;12.10;9.27;;;;;;;10.89;92.68;96175.00;2071509;28;20037;-62
2022/06/03 03:33:32;;;;;;;14.52;10.07;;;;;;;10.95;92.74;96185.94;2079918;28;20041;-62
2022/06/03 03:35:13;;;;;;;11.20;10.10;;;;;;;11.02;91.80;96183.94;2069541;28;20050;-62
2022/06/03 03:36:33;;;;;;;10.65;9.55;;;;;;;11.10;92.04;96178.38;2077762;28;20041;-62
2022/06/03 03:37:45;;;;;;;13.07;9.75;;;;;;;11.12;92.46;96169.59;2071852;28;20065;-62
2022/06/03 03:39:00;;;;;;;12.75;10.60;;;;;;;11.22;92.44;96176.03;2049837;28;20051;-62
2022/06/03 03:40:41;;;;;;;10.40;9.30;;;;;;;11.27;92.87;96179.25;2040506;28;20051;-62
2022/06/03 03:42:09;;;;;;;12.20;8.95;;;;;;;11.32;92.75;96178.22;2061358;28;20046;-62
2022/06/03 03:43:30;;;;;;;10.70;8.93;;;;;;;11.34;92.54;96174.63;2067632;28;20042;-62
2022/06/03 03:44:42;;;;;;;9.80;8.57;;;;;;;11.39;92.38;96171.81;2070766;28;20045;-60
2022/06/03 03:46:23;;;;;;;10.52;9.25;;;;;;;11.41;92.57;96169.97;2071572;28;20050;-61
2022/06/03 03:47:44;;;;;;;11.10;8.65;;;;;;;11.42;92.61;96171.66;2069362;28;20041;-60
2022/06/03 03:49:08;;;;;;;11.88;8.55;;;;;;;11.46;91.61;96173.19;2064867;28;20049;-63
2022/06/03 03:50:22;;;;;;;10.95;8.77;;;;;;;11.45;91.13;96169.75;2066618;28;20049;-61
2022/06/03 03:51:44;;;;;;;13.05;8.70;;;;;;;11.47;91.15;96175.72;2065902;28;20046;-62
2022/06/03 03:53:06;;;;;;;8.73;7.80;;;;;;;11.50;90.16;96174.75;2066323;28;20053;-62
2022/06/03 03:54:24;;;;;;;8.95;7.97;;;;;;;11.49;89.71;96175.63;2066447;28;20038;-62
2022/06/03 03:55:31;;;;;;;10.45;8.68;;;;;;;11.51;89.93;96179.00;2063835;28;20042;-61
2022/06/03 03:56:47;;;;;;;8.65;7.70;;;;;;;11.52;89.94;96178.13;2065462;28;20049;-62
2022/06/03 03:58:02;;;;;;;10.63;8.13;;;;;;;11.50;89.53;96173.91;2063504;28;20050;-62
2022/06/03 03:59:29;;;;;;;12.45;8.85;;;;;;;11.48;90.18;96179.16;2059783;28;20051;-63
2022/06/03 04:00:42;;;;;;;11.30;7.60;;;;;;;11.46;90.06;96183.59;2063869;28;20065;-59
2022/06/03 04:02:05;;;;;;;10.55;7.75;;;;;;;11.46;89.59;96186.19;2054418;28;20433;-62
2022/06/03 04:03:35;;;;;;;8.60;7.65;;;;;;;11.44;89.20;96186.28;2061189;28;20443;-62
2022/06/03 04:05:10;;;;;;;11.68;8.32;;;;;;;11.45;89.30;96187.13;2067824;28;20046;-60
2022/06/03 04:06:33;;;;;;;9.27;7.32;;;;;;;11.43;89.29;96189.78;2076846;28;20041;-62
2022/06/03 04:07:46;;;;;;;10.68;7.70;;;;;;;11.44;89.91;96195.81;2080680;28;20045;-61
2022/06/03 04:08:59;;;;;;;8.50;7.10;;;;;;;11.42;89.35;96203.72;2071509;28;20050;-62
2022/06/03 04:10:30;;;;;;;10.52;8.23;;;;;;;11.40;88.66;96202.94;2071825;28;20444;-62
2022/06/03 04:11:54;;;;;;;9.80;7.80;;;;;;;11.38;88.68;96207.34;2076054;28;20056;-61
2022/06/03 04:13:20;;;;;;;11.32;7.85;;;;;;;11.40;89.61;96212.50;2071420;28;20060;-62
2022/06/03 04:14:45;;;;;;;9.77;7.65;;;;;;;11.37;89.19;96208.28;2059063;28;20049;-62
2022/06/03 04:16:02;;;;;;;10.25;7.97;;;;;;;11.36;89.18;96219.59;2070430;28;20045;-62
2022/06/03 04:17:30;;;;;;;11.27;7.72;;;;;;;11.35;88.69;96201.47;2071611;28;20474;-62
2022/06/03 04:18:56;;;;;;;11.77;8.20;;;;;;;11.39;88.64;96205.63;2056261;28;20054;-61
2022/06/03 04:20:17;;;;;;;9.02;7.80;;;;;;;11.40;88.55;96199.50;2050930;28;20428;-62
2022/06/03 04:21:43;;;;;;;10.60;7.90;;;;;;;11.40;89.18;96202.09;2055724;28;20046;-60
2022/06/03 04:22:57;;;;;;;8.02;7.18;;;;;;;11.39;88.35;96193.47;2058015;28;20505;-59
2022/06/03 04:24:37;;;;;;;8.48;7.20;;;;;;;11.40;88.55;96196.91;2059901;28;20505;-62
2022/06/03 04:26:07;;;;;;;10.98;7.75;;;;;;;11.39;88.68;96198.66;2060763;28;20051;-62
2022/06/03 04:27:40;;;;;;;13.02;8.55;;;;;;;11.38;88.73;96196.94;2065941;28;20042;-62
2022/06/03 04:28:43;;;;;;;11.25;7.68;;;;;;;11.40;88.49;96196.91;2060231;28;20042;-62
2022/06/03 04:30:12;;;;;;;10.32;7.63;;;;;;;11.40;88.44;96189.94;2058211;28;20047;-62
2022/06/03 04:31:42;;;;;;;10.90;8.00;;;;;;;11.36;87.86;96190.13;2063403;28;20045;-60
2022/06/03 04:33:01;;;;;;;9.63;8.20;;;;;;;11.42;88.17;96193.31;2068164;28;20130;-63
2022/06/03 04:34:42;;;;;;;9.10;8.02;;;;;;;11.44;88.26;96194.09;2067375;28;20484;-63
2022/06/03 04:36:00;;;;;;;9.23;7.28;;;;;;;11.47;87.45;96196.53;2077806;28;20483;-63
2022/06/03 04:37:33;;;;;;;11.77;7.30;;;;;;;11.54;87.70;96199.66;2063439;28;20054;-62
2022/06/03 04:38:58;;;;;;;11.43;7.70;;;;;;;11.59;86.78;96202.91;2059677;28;20440;-62
2022/06/03 04:40:18;;;;;;;8.43;6.45;;;;;;;11.60;86.26;96208.94;2064765;28;20042;-63
2022/06/03 04:41:38;;;;;;;11.77;8.38;;;;;;;11.64;87.42;96206.13;2066428;28;20401;-62
2022/06/03 04:42:59;;;;;;;9.15;7.32;;;;;;;11.72;87.31;96208.34;2058598;28;20051;-62
2022/06/03 04:44:24;;;;;;;12.65;7.40;;;;;;;11.82;86.72;96208.75;2058462;28;20053;-60
2022/06/03 04:45:52;;;;;;;10.27;7.65;;;;;;;11.95;86.61;96207.28;2073281;28;20526;-61
2022/06/03 04:47:29;;;;;;;8.85;7.18;;;;;;;12.04;84.91;96196.41;2072082;28;20046;-60
2022/06/03 04:49:10;;;;;;;12.50;7.25;;;;;;;12.17;83.88;96206.22;2065373;28;20053;-60
2022/06/03 04:50:34;;;;;;;9.80;7.15;;;;;;;12.25;84.00;96197.09;2063964;28;20038;-62
2022/06/03 04:52:06;;;;;;;8.48;7.22;;;;;;;12.39;84.93;96196.38;2061698;28;20045;-64
2022/06/03 04:53:29;;;;;;;8.32;6.93;;;;;;;12.46;84.36;96200.38;2067684;28;20065;-63
2022/06/03 04:55:07;;;;;;;10.38;7.72;;;;;;;12.54;83.20;96199.97;2063835;28;20564;-60
2022/06/03 04:56:32;;;;;;;10.10;7.45;;;;;;;12.58;83.14;96199.72;2066051;28;20659;-64
2022/06/03 04:58:13;;;;;;;12.20;8.75;;;;;;;12.59;81.71;96200.59;2075481;28;20041;-63
2022/06/03 04:59:52;;;;;;;9.68;8.02;;;;;;;12.68;81.75;96196.66;2055351;28;20043;-63
2022/06/03 05:01:28;;;;;;;10.73;9.00;;;;;;;12.70;81.85;96197.41;2074116;28;20045;-62
2022/06/03 05:03:09;;;;;;;11.02;9.20;;;;;;;12.73;82.00;96189.44;2080287;28;20053;-61
2022/06/03 05:04:36;;;;;;;11.38;8.75;;;;;;;12.79;81.33;96205.56;2071926;28;20034;-63
2022/06/03 05:05:56;;;;;;;9.65;8.57;;;;;;;12.88;81.21;96193.81;2071881;28;20054;-60
2022/06/03 05:07:23;;;;;;;11.63;8.77;;;;;;;12.92;81.64;96200.56;2076185;28;20049;-61
2022/06/03 05:08:58;;;;;;;10.40;8.40;;;;;;;12.92;80.01;96197.94;2069663;28;20416;-63
2022/06/03 05:10:27;;;;;;;10.35;7.85;;;;;;;12.97;80.30;96195.94;2069075;28;20057;-59
2022/06/03 05:11:47;;;;;;;10.55;8.50;;;;;;;13.09;80.11;96191.81;2064038;28;20066;-62
2022/06/03 05:13:17;;;;;;;10.77;8.32;;;;;;;13.12;79.78;96188.22;2073936;28;20042;-62
2022/06/03 05:14:48;;;;;;;10.77;8.15;;;;;;;13.24;79.86;96191.00;2071335;28;20053;-64
2022/06/03 05:16:27;;;;;;;9.35;8.02;;;;;;;13.41;79.83;96182.28;2067751;28;20069;-62
2022/06/03 05:17:52;;;;;;;10.38;8.63;;;;;;;13.44;78.77;96171.69;2065690;28;20037;-62
2022/06/03 05:18:54;;;;;;;9.80;7.68;;;;;;;13.50;79.00;96170.50;2068560;28;20049;-62
2022/06/03 05:20:12;;;;;;;8.57;7.25;;;;;;;13.62;78.49;96175.03;2075238;28;20042;-62
2022/06/03 05:21:19;;;;;;;10.73;8.00;;;;;;;13.81;78.29;96174.81;2072959;28;20496;-62
2022/06/03 05:22:20;;;;;;;10.45;8.13;;;;;;;13.89;78.19;96182.22;2073441;28;20061;-62
2022/06/03 05:23:32;;;;;;;10.82;8.05;;;;;;;14.02;77.51;96177.97;2064847;28;20547;-63
2022/06/03 05:24:58;;;;;;;10.85;8.35;;;;;;;14.20;77.12;96180.44;2068114;28;20049;-60
2022/06/03 05:26:26;;;;;;;11.60;8.15;;;;;;;14.23;76.58;96181.09;2072863;28;20516;-63
2022/06/03 05:27:42;;;;;;;8.30;7.43;;;;;;;14.37;76.34;96187.28;2071204;28;20049;-64
2022/06/03 05:29:02;;;;;;;8.75;7.28;;;;;;;14.34;75.71;96188.28;2066296;28;20046;-63
2022/06/03 05:30:41;;;;;;;8.40;7.50;;;;;;;14.54;75.11;96187.13;2066936;28;20045;-60
2022/06/03 05:32:13;;;;;;;10.68;7.32;;;;;;;14.66;75.14;96182.97;2070442;28;20065;-63
2022/06/03 05:33:23;;;;;;;10.25;6.72;;;;;;;14.81;75.38;96184.66;2068838;28;20563;-63
2022/06/03 05:34:47;;;;;;;9.18;7.63;;;;;;;14.95;74.58;96181.19;2066468;28;20042;-61
2022/06/03 05:36:15;;;;;;;8.27;6.88;;;;;;;15.02;74.54;96177.22;2076235;28;20053;-63
2022/06/03 05:37:56;;;;;;;8.50;7.38;;;;;;;15.02;74.85;96179.84;2081234;28;20523;-62
2022/06/03 05:39:35;;;;;;;9.43;7.93;;;;;;;15.26;73.97;96176.63;2072923;28;20106;-60
2022/06/03 05:40:41;;;;;;;8.55;7.00;;;;;;;15.48;73.84;96174.38;2078800;28;20037;-62
2022/06/03 05:43:42;;;;;;;9.15;7.38;;;;;;;15.64;72.74;96179.47;2071086;28;20037;-62
2022/06/03 05:45:23;;;;;;;9.57;7.53;;;;;;;15.63;73.14;96175.97;2072446;28;20046;-62
2022/06/03 05:46:46;;;;;;;8.23;6.97;;;;;;;15.54;73.95;96176.56;2078516;28;20041;-62
2022/06/03 05:47:49;;;;;;;12.18;7.97;;;;;;;15.31;74.46;96171.97;2072610;28;20042;-63
2022/06/03 05:49:02;;;;;;;8.73;7.22;;;;;;;15.32;74.88;96173.66;2064464;28;20058;-65
2022/06/03 05:50:05;;;;;;;8.68;7.50;;;;;;;15.28;75.37;96175.59;2050578;28;20077;-63
2022/06/03 05:51:20;;;;;;;9.55;7.38;;;;;;;15.37;75.68;96175.03;2058059;28;20055;-64
2022/06/03 05:52:23;;;;;;;8.65;7.68;;;;;;;15.18;75.01;96170.13;2066366;28;20046;-64
2022/06/03 05:53:38;;;;;;;10.80;7.80;;;;;;;15.30;75.56;96172.91;2064359;28;20408;-61
2022/06/03 05:54:42;;;;;;;9.75;7.88;;;;;;;15.24;75.25;96173.31;2066833;28;20046;-63
2022/06/03 05:56:04;;;;;;;12.18;7.32;;;;;;;15.16;75.95;96173.78;2057587;28;20054;-63
2022/06/03 05:57:23;;;;;;;11.93;8.27;;;;;;;15.19;76.16;96166.56;2062601;28;20049;-60
2022/06/03 05:58:28;;;;;;;;;;;;;;;15.17;76.47;96178.91;2078533;28;20408;-63
2022/06/03 05:59:37;;;;;;;12.80;7.72;;;;;;;15.10;76.35;96182.00;2081519;28;20430;-63
2022/06/03 06:00:44;;;;;;;11.05;8.27;;;;;;;15.21;76.49;96179.56;2072746;28;20056;-63
2022/06/03 06:02:10;;;;;;;12.27;8.10;;;;;;;15.19;75.70;96177.03;2073089;28;20060;-63
2022/06/03 06:03:30;;;;;;;9.35;7.88;;;;;;;15.16;75.96;96182.47;2076606;28;20041;-64
2022/06/03 06:04:59;;;;;;;9.80;7.65;;;;;;;14.96;77.40;96175.84;2064469;28;20050;-63
2022/06/03 06:06:09;;;;;;;9.23;7.90;;;;;;;14.99;77.22;96172.19;2072561;28;20410;-62
2022/06/03 06:07:49;;;;;;;10.70;7.35;;;;;;;15.06;77.33;96172.69;2081119;28;20068;-64
2022/06/03 06:09:08;;;;;;;11.07;7.85;;;;;;;15.03;77.11;96163.25;2065685;28;20049;-61
2022/06/03 06:10:11;;;;;;;;;;;;;;;15.12;77.15;96167.88;2059713;28;20044;-64
2022/06/03 06:11:18;;;;;;;9.70;7.75;;;;;;;15.11;76.71;96165.38;2067487;28;20414;-63
2022/06/03 06:12:26;;;;;;;12.25;7.93;;;;;;;15.01;77.40;96167.72;2072101;28;20045;-60
2022/06/03 06:13:49;;;;;;;11.35;7.72;;;;;;;14.98;77.62;96162.69;2064895;28;20413;-63
2022/06/03 06:15:17;;;;;;;10.60;7.63;;;;;;;15.12;77.68;96167.06;2054978;28;20523;-63
2022/06/03 06:16:32;;;;;;;8.68;7.38;;;;;;;15.20;77.48;96165.63;2062308;28;20042;-60
2022/06/03 06:18:00;;;;;;;12.60;7.65;;;;;;;15.29;77.18;96168.59;2063334;28;20073;-64
2022/06/03 06:19:25;;;;;;;10.20;7.72;;;;;;;15.29;76.91;96171.22;2069568;28;20495;-64
2022/06/03 06:20:41;;;;;;;9.48;7.38;;;;;;;15.39;76.95;96164.47;2076293;28;20045;-62
2022/06/03 06:21:59;;;;;;;8.68;7.60;;;;;;;15.36;76.67;96165.50;2081904;28;20049;-63
2022/06/03 06:23:15;;;;;;;8.48;7.60;;;;;;;15.21;76.88;96176.97;2064544;28;20055;-63
2022/06/03 06:24:36;;;;;;;10.70;8.30;;;;;;;15.18;76.98;96174.50;2060848;28;20046;-62